sensor_id;sensor_type;location;lat;lon;timestamp;P1;durP1;ratioP1;P2;durP2;ratioP2
81523;SDS011;70954;49.500;10.416;2023-10-13T00:01:39;4.28;;;2.53;;
81523;SDS011;70954;49.500;10.416;2023-10-13T00:04:05;5.30;;;2.60;;
81523;SDS011;70954;49.500;10.416;2023-10-13T00:06:30;5.18;;;2.83;;
81523;SDS011;70954;49.500;10.416;2023-10-13T00:08:56;5.43;;;2.67;;
81523;SDS011;70954;49.500;10.416;2023-10-13T00:11:21;3.90;;;2.60;;
81523;SDS011;70954;49.500;10.416;2023-10-13T00:13:47;4.35;;;2.47;;
81523;SDS011;70954;49.500;10.416;2023-10-13T00:16:12;6.30;;;2.40;;
81523;SDS011;70954;49.500;10.416;2023-10-13T00:18:38;4.95;;;2.70;;
81523;SDS011;70954;49.500;10.416;2023-10-13T00:21:03;5.95;;;2.67;;
81523;SDS011;70954;49.500;10.416;2023-10-13T00:23:28;4.32;;;2.30;;
81523;SDS011;70954;49.500;10.416;2023-10-13T00:25:54;4.55;;;2.40;;
81523;SDS011;70954;49.500;10.416;2023-10-13T00:28:19;5.57;;;2.22;;
81523;SDS011;70954;49.500;10.416;2023-10-13T00:30:45;5.47;;;2.40;;
81523;SDS011;70954;49.500;10.416;2023-10-13T00:33:10;4.15;;;2.08;;
81523;SDS011;70954;49.500;10.416;2023-10-13T00:35:36;3.65;;;2.35;;
81523;SDS011;70954;49.500;10.416;2023-10-13T00:38:04;6.28;;;2.42;;
81523;SDS011;70954;49.500;10.416;2023-10-13T00:42:57;6.40;;;2.38;;
81523;SDS011;70954;49.500;10.416;2023-10-13T00:45:23;3.42;;;2.03;;
81523;SDS011;70954;49.500;10.416;2023-10-13T00:47:49;4.35;;;2.20;;
81523;SDS011;70954;49.500;10.416;2023-10-13T00:50:15;3.83;;;2.20;;
81523;SDS011;70954;49.500;10.416;2023-10-13T00:52:41;5.43;;;2.20;;
81523;SDS011;70954;49.500;10.416;2023-10-13T00:55:09;3.95;;;2.30;;
81523;SDS011;70954;49.500;10.416;2023-10-13T00:57:36;4.22;;;2.28;;
81523;SDS011;70954;49.500;10.416;2023-10-13T01:00:01;4.30;;;2.13;;
81523;SDS011;70954;49.500;10.416;2023-10-13T01:02:27;3.90;;;2.70;;
81523;SDS011;70954;49.500;10.416;2023-10-13T01:04:53;4.65;;;2.15;;
81523;SDS011;70954;49.500;10.416;2023-10-13T01:07:18;5.20;;;2.20;;
81523;SDS011;70954;49.500;10.416;2023-10-13T01:09:44;4.40;;;2.25;;
81523;SDS011;70954;49.500;10.416;2023-10-13T01:12:09;4.75;;;2.40;;
81523;SDS011;70954;49.500;10.416;2023-10-13T01:14:34;3.30;;;2.30;;
81523;SDS011;70954;49.500;10.416;2023-10-13T01:17:00;4.88;;;2.45;;
81523;SDS011;70954;49.500;10.416;2023-10-13T01:19:26;5.18;;;2.40;;
81523;SDS011;70954;49.500;10.416;2023-10-13T01:21:51;5.15;;;2.30;;
81523;SDS011;70954;49.500;10.416;2023-10-13T01:24:17;6.50;;;2.63;;
81523;SDS011;70954;49.500;10.416;2023-10-13T01:26:42;5.10;;;2.53;;
81523;SDS011;70954;49.500;10.416;2023-10-13T01:29:08;5.80;;;2.42;;
81523;SDS011;70954;49.500;10.416;2023-10-13T01:31:34;4.40;;;2.55;;
81523;SDS011;70954;49.500;10.416;2023-10-13T01:33:59;3.65;;;2.00;;
81523;SDS011;70954;49.500;10.416;2023-10-13T01:36:26;4.68;;;2.58;;
81523;SDS011;70954;49.500;10.416;2023-10-13T01:38:52;4.82;;;2.42;;
81523;SDS011;70954;49.500;10.416;2023-10-13T01:41:18;3.90;;;2.40;;
81523;SDS011;70954;49.500;10.416;2023-10-13T01:43:45;5.13;;;2.38;;
81523;SDS011;70954;49.500;10.416;2023-10-13T01:46:11;3.83;;;2.60;;
81523;SDS011;70954;49.500;10.416;2023-10-13T01:48:36;4.43;;;2.33;;
81523;SDS011;70954;49.500;10.416;2023-10-13T01:51:02;4.45;;;2.25;;
81523;SDS011;70954;49.500;10.416;2023-10-13T01:53:27;4.13;;;2.50;;
81523;SDS011;70954;49.500;10.416;2023-10-13T01:55:53;5.00;;;2.53;;
81523;SDS011;70954;49.500;10.416;2023-10-13T01:58:18;4.93;;;2.45;;
81523;SDS011;70954;49.500;10.416;2023-10-13T02:00:44;4.28;;;2.40;;
81523;SDS011;70954;49.500;10.416;2023-10-13T02:03:11;4.07;;;2.35;;
81523;SDS011;70954;49.500;10.416;2023-10-13T02:05:37;6.20;;;2.42;;
81523;SDS011;70954;49.500;10.416;2023-10-13T02:08:02;4.35;;;2.53;;
81523;SDS011;70954;49.500;10.416;2023-10-13T02:10:28;5.22;;;2.58;;
81523;SDS011;70954;49.500;10.416;2023-10-13T02:12:53;4.88;;;2.45;;
81523;SDS011;70954;49.500;10.416;2023-10-13T02:15:19;5.13;;;2.97;;
81523;SDS011;70954;49.500;10.416;2023-10-13T02:17:44;6.10;;;2.92;;
81523;SDS011;70954;49.500;10.416;2023-10-13T02:20:10;4.20;;;2.47;;
81523;SDS011;70954;49.500;10.416;2023-10-13T02:22:35;4.50;;;2.85;;
81523;SDS011;70954;49.500;10.416;2023-10-13T02:25:01;5.93;;;2.65;;
81523;SDS011;70954;49.500;10.416;2023-10-13T02:27:26;5.85;;;2.75;;
81523;SDS011;70954;49.500;10.416;2023-10-13T02:29:52;5.03;;;2.75;;
81523;SDS011;70954;49.500;10.416;2023-10-13T02:32:18;4.60;;;2.70;;
81523;SDS011;70954;49.500;10.416;2023-10-13T02:34:43;5.18;;;2.25;;
81523;SDS011;70954;49.500;10.416;2023-10-13T02:37:09;4.13;;;2.72;;
81523;SDS011;70954;49.500;10.416;2023-10-13T02:39:35;4.53;;;2.70;;
81523;SDS011;70954;49.500;10.416;2023-10-13T02:42:01;4.70;;;2.45;;
81523;SDS011;70954;49.500;10.416;2023-10-13T02:44:27;5.35;;;2.63;;
81523;SDS011;70954;49.500;10.416;2023-10-13T02:46:53;5.15;;;2.58;;
81523;SDS011;70954;49.500;10.416;2023-10-13T02:49:19;4.20;;;2.92;;
81523;SDS011;70954;49.500;10.416;2023-10-13T02:51:45;4.60;;;2.70;;
81523;SDS011;70954;49.500;10.416;2023-10-13T02:54:10;4.82;;;2.83;;
81523;SDS011;70954;49.500;10.416;2023-10-13T02:56:36;5.57;;;2.50;;
81523;SDS011;70954;49.500;10.416;2023-10-13T02:59:02;4.15;;;2.67;;
81523;SDS011;70954;49.500;10.416;2023-10-13T03:01:28;4.07;;;2.33;;
81523;SDS011;70954;49.500;10.416;2023-10-13T03:03:54;3.70;;;2.50;;
81523;SDS011;70954;49.500;10.416;2023-10-13T03:06:20;5.22;;;3.03;;
81523;SDS011;70954;49.500;10.416;2023-10-13T03:08:47;4.80;;;2.38;;
81523;SDS011;70954;49.500;10.416;2023-10-13T03:11:13;4.57;;;2.90;;
81523;SDS011;70954;49.500;10.416;2023-10-13T03:13:38;5.20;;;2.92;;
81523;SDS011;70954;49.500;10.416;2023-10-13T03:16:11;5.25;;;2.53;;
81523;SDS011;70954;49.500;10.416;2023-10-13T03:18:37;5.20;;;2.50;;
81523;SDS011;70954;49.500;10.416;2023-10-13T03:21:02;3.28;;;2.40;;
81523;SDS011;70954;49.500;10.416;2023-10-13T03:23:28;4.85;;;2.80;;
81523;SDS011;70954;49.500;10.416;2023-10-13T03:25:53;5.57;;;2.95;;
81523;SDS011;70954;49.500;10.416;2023-10-13T03:28:19;5.18;;;2.63;;
81523;SDS011;70954;49.500;10.416;2023-10-13T03:30:44;4.90;;;2.92;;
81523;SDS011;70954;49.500;10.416;2023-10-13T03:33:10;5.15;;;2.60;;
81523;SDS011;70954;49.500;10.416;2023-10-13T03:35:35;5.47;;;2.63;;
81523;SDS011;70954;49.500;10.416;2023-10-13T03:38:01;5.38;;;2.83;;
81523;SDS011;70954;49.500;10.416;2023-10-13T03:40:26;6.45;;;2.88;;
81523;SDS011;70954;49.500;10.416;2023-10-13T03:42:52;6.88;;;2.67;;
81523;SDS011;70954;49.500;10.416;2023-10-13T03:45:19;4.50;;;2.85;;
81523;SDS011;70954;49.500;10.416;2023-10-13T03:47:44;4.47;;;2.50;;
81523;SDS011;70954;49.500;10.416;2023-10-13T03:50:10;5.20;;;3.10;;
81523;SDS011;70954;49.500;10.416;2023-10-13T03:52:35;7.32;;;2.85;;
81523;SDS011;70954;49.500;10.416;2023-10-13T03:55:01;5.65;;;2.72;;
81523;SDS011;70954;49.500;10.416;2023-10-13T03:57:26;4.90;;;2.80;;
81523;SDS011;70954;49.500;10.416;2023-10-13T03:59:52;6.80;;;3.08;;
81523;SDS011;70954;49.500;10.416;2023-10-13T04:02:17;5.53;;;2.85;;
81523;SDS011;70954;49.500;10.416;2023-10-13T04:04:43;4.80;;;2.92;;
81523;SDS011;70954;49.500;10.416;2023-10-13T04:07:08;7.25;;;3.28;;
81523;SDS011;70954;49.500;10.416;2023-10-13T04:09:35;4.80;;;2.75;;
81523;SDS011;70954;49.500;10.416;2023-10-13T04:12:07;5.13;;;3.22;;
81523;SDS011;70954;49.500;10.416;2023-10-13T04:14:38;3.95;;;2.53;;
81523;SDS011;70954;49.500;10.416;2023-10-13T04:17:05;6.57;;;3.25;;
81523;SDS011;70954;49.500;10.416;2023-10-13T04:19:31;6.28;;;2.78;;
81523;SDS011;70954;49.500;10.416;2023-10-13T04:21:56;5.20;;;3.00;;
81523;SDS011;70954;49.500;10.416;2023-10-13T04:24:22;6.10;;;3.40;;
81523;SDS011;70954;49.500;10.416;2023-10-13T04:26:48;4.95;;;2.97;;
81523;SDS011;70954;49.500;10.416;2023-10-13T04:29:14;5.05;;;2.90;;
81523;SDS011;70954;49.500;10.416;2023-10-13T04:31:40;4.82;;;2.97;;
81523;SDS011;70954;49.500;10.416;2023-10-13T04:34:05;6.00;;;3.17;;
81523;SDS011;70954;49.500;10.416;2023-10-13T04:36:30;6.50;;;3.10;;
81523;SDS011;70954;49.500;10.416;2023-10-13T04:38:59;5.18;;;3.15;;
81523;SDS011;70954;49.500;10.416;2023-10-13T04:41:28;5.22;;;2.75;;
81523;SDS011;70954;49.500;10.416;2023-10-13T04:43:54;5.07;;;2.75;;
81523;SDS011;70954;49.500;10.416;2023-10-13T04:46:20;5.53;;;2.83;;
81523;SDS011;70954;49.500;10.416;2023-10-13T04:48:46;6.68;;;2.92;;
81523;SDS011;70954;49.500;10.416;2023-10-13T04:51:11;5.07;;;2.83;;
81523;SDS011;70954;49.500;10.416;2023-10-13T04:53:36;7.35;;;3.30;;
81523;SDS011;70954;49.500;10.416;2023-10-13T04:56:02;5.95;;;2.92;;
81523;SDS011;70954;49.500;10.416;2023-10-13T04:58:28;5.72;;;3.20;;
81523;SDS011;70954;49.500;10.416;2023-10-13T05:00:54;4.97;;;3.20;;
81523;SDS011;70954;49.500;10.416;2023-10-13T05:03:24;4.65;;;3.30;;
81523;SDS011;70954;49.500;10.416;2023-10-13T05:05:49;5.15;;;3.35;;
81523;SDS011;70954;49.500;10.416;2023-10-13T05:08:15;7.30;;;3.80;;
81523;SDS011;70954;49.500;10.416;2023-10-13T05:10:41;6.65;;;3.33;;
81523;SDS011;70954;49.500;10.416;2023-10-13T05:13:06;4.85;;;3.30;;
81523;SDS011;70954;49.500;10.416;2023-10-13T05:15:32;7.78;;;3.85;;
81523;SDS011;70954;49.500;10.416;2023-10-13T05:17:57;7.30;;;3.83;;
81523;SDS011;70954;49.500;10.416;2023-10-13T05:20:22;7.57;;;4.63;;
81523;SDS011;70954;49.500;10.416;2023-10-13T05:22:48;9.32;;;5.03;;
81523;SDS011;70954;49.500;10.416;2023-10-13T05:25:13;6.93;;;4.45;;
81523;SDS011;70954;49.500;10.416;2023-10-13T05:27:39;9.57;;;4.40;;
81523;SDS011;70954;49.500;10.416;2023-10-13T05:30:04;6.75;;;4.22;;
81523;SDS011;70954;49.500;10.416;2023-10-13T05:32:30;7.97;;;4.47;;
81523;SDS011;70954;49.500;10.416;2023-10-13T05:34:56;7.63;;;4.40;;
81523;SDS011;70954;49.500;10.416;2023-10-13T05:37:22;5.22;;;3.25;;
81523;SDS011;70954;49.500;10.416;2023-10-13T05:39:47;7.13;;;3.33;;
81523;SDS011;70954;49.500;10.416;2023-10-13T05:42:13;6.35;;;3.53;;
81523;SDS011;70954;49.500;10.416;2023-10-13T05:44:38;6.88;;;3.45;;
81523;SDS011;70954;49.500;10.416;2023-10-13T05:47:04;5.40;;;3.03;;
81523;SDS011;70954;49.500;10.416;2023-10-13T05:49:29;6.45;;;3.20;;
81523;SDS011;70954;49.500;10.416;2023-10-13T05:51:55;3.90;;;2.55;;
81523;SDS011;70954;49.500;10.416;2023-10-13T05:54:20;5.22;;;2.85;;
81523;SDS011;70954;49.500;10.416;2023-10-13T05:56:46;6.55;;;3.28;;
81523;SDS011;70954;49.500;10.416;2023-10-13T05:59:17;5.63;;;3.08;;
81523;SDS011;70954;49.500;10.416;2023-10-13T06:01:42;4.72;;;2.90;;
81523;SDS011;70954;49.500;10.416;2023-10-13T06:04:08;4.53;;;2.85;;
81523;SDS011;70954;49.500;10.416;2023-10-13T06:06:33;4.72;;;2.70;;
81523;SDS011;70954;49.500;10.416;2023-10-13T06:08:59;5.40;;;2.80;;
81523;SDS011;70954;49.500;10.416;2023-10-13T06:11:24;4.90;;;2.60;;
81523;SDS011;70954;49.500;10.416;2023-10-13T06:13:49;4.20;;;2.55;;
81523;SDS011;70954;49.500;10.416;2023-10-13T06:16:15;5.10;;;2.90;;
81523;SDS011;70954;49.500;10.416;2023-10-13T06:18:42;4.70;;;2.58;;
81523;SDS011;70954;49.500;10.416;2023-10-13T06:21:07;4.47;;;2.78;;
81523;SDS011;70954;49.500;10.416;2023-10-13T06:23:33;5.38;;;2.85;;
81523;SDS011;70954;49.500;10.416;2023-10-13T06:25:58;4.60;;;2.53;;
81523;SDS011;70954;49.500;10.416;2023-10-13T06:28:24;6.47;;;2.90;;
81523;SDS011;70954;49.500;10.416;2023-10-13T06:30:56;7.28;;;2.53;;
81523;SDS011;70954;49.500;10.416;2023-10-13T06:33:23;5.93;;;2.33;;
81523;SDS011;70954;49.500;10.416;2023-10-13T06:35:51;3.60;;;2.30;;
81523;SDS011;70954;49.500;10.416;2023-10-13T06:38:16;3.15;;;2.30;;
81523;SDS011;70954;49.500;10.416;2023-10-13T06:40:44;4.10;;;2.45;;
81523;SDS011;70954;49.500;10.416;2023-10-13T06:43:10;3.63;;;2.25;;
81523;SDS011;70954;49.500;10.416;2023-10-13T06:45:36;3.70;;;2.47;;
81523;SDS011;70954;49.500;10.416;2023-10-13T06:48:01;4.18;;;2.33;;
81523;SDS011;70954;49.500;10.416;2023-10-13T06:50:27;5.47;;;2.70;;
81523;SDS011;70954;49.500;10.416;2023-10-13T06:52:52;4.30;;;2.28;;
81523;SDS011;70954;49.500;10.416;2023-10-13T06:55:17;3.55;;;2.17;;
81523;SDS011;70954;49.500;10.416;2023-10-13T06:57:43;4.05;;;2.17;;
81523;SDS011;70954;49.500;10.416;2023-10-13T07:00:10;4.05;;;2.30;;
81523;SDS011;70954;49.500;10.416;2023-10-13T07:02:36;6.00;;;2.20;;
81523;SDS011;70954;49.500;10.416;2023-10-13T07:05:01;4.78;;;2.10;;
81523;SDS011;70954;49.500;10.416;2023-10-13T07:07:26;2.25;;;1.92;;
81523;SDS011;70954;49.500;10.416;2023-10-13T07:09:52;4.20;;;2.25;;
81523;SDS011;70954;49.500;10.416;2023-10-13T07:12:17;5.55;;;2.40;;
81523;SDS011;70954;49.500;10.416;2023-10-13T07:14:46;3.47;;;2.13;;
81523;SDS011;70954;49.500;10.416;2023-10-13T07:17:12;3.97;;;2.10;;
81523;SDS011;70954;49.500;10.416;2023-10-13T07:19:38;3.17;;;2.30;;
81523;SDS011;70954;49.500;10.416;2023-10-13T07:22:03;6.13;;;2.38;;
81523;SDS011;70954;49.500;10.416;2023-10-13T07:24:29;4.55;;;2.28;;
81523;SDS011;70954;49.500;10.416;2023-10-13T07:26:54;5.28;;;2.90;;
81523;SDS011;70954;49.500;10.416;2023-10-13T07:29:20;4.13;;;2.35;;
81523;SDS011;70954;49.500;10.416;2023-10-13T07:31:45;5.00;;;2.90;;
81523;SDS011;70954;49.500;10.416;2023-10-13T07:34:11;4.65;;;2.70;;
81523;SDS011;70954;49.500;10.416;2023-10-13T07:36:36;5.32;;;3.00;;
81523;SDS011;70954;49.500;10.416;2023-10-13T07:39:02;3.20;;;2.55;;
81523;SDS011;70954;49.500;10.416;2023-10-13T07:41:27;3.70;;;2.50;;
81523;SDS011;70954;49.500;10.416;2023-10-13T07:43:53;3.80;;;2.15;;
81523;SDS011;70954;49.500;10.416;2023-10-13T07:46:18;2.78;;;1.98;;
81523;SDS011;70954;49.500;10.416;2023-10-13T07:48:44;3.88;;;2.38;;
81523;SDS011;70954;49.500;10.416;2023-10-13T07:51:09;4.13;;;2.13;;
81523;SDS011;70954;49.500;10.416;2023-10-13T07:53:35;3.45;;;1.77;;
81523;SDS011;70954;49.500;10.416;2023-10-13T07:56:01;3.15;;;2.13;;
81523;SDS011;70954;49.500;10.416;2023-10-13T07:58:26;6.63;;;2.40;;
81523;SDS011;70954;49.500;10.416;2023-10-13T08:00:52;3.88;;;2.10;;
81523;SDS011;70954;49.500;10.416;2023-10-13T08:03:17;4.15;;;2.03;;
81523;SDS011;70954;49.500;10.416;2023-10-13T08:05:43;3.22;;;2.10;;
81523;SDS011;70954;49.500;10.416;2023-10-13T08:08:09;2.90;;;1.98;;
81523;SDS011;70954;49.500;10.416;2023-10-13T08:10:35;3.60;;;2.10;;
81523;SDS011;70954;49.500;10.416;2023-10-13T08:13:01;4.88;;;2.10;;
81523;SDS011;70954;49.500;10.416;2023-10-13T08:15:26;4.03;;;1.92;;
81523;SDS011;70954;49.500;10.416;2023-10-13T08:17:52;3.97;;;2.00;;
81523;SDS011;70954;49.500;10.416;2023-10-13T08:20:17;3.65;;;1.90;;
81523;SDS011;70954;49.500;10.416;2023-10-13T08:22:43;6.13;;;2.20;;
81523;SDS011;70954;49.500;10.416;2023-10-13T08:25:08;3.45;;;1.67;;
81523;SDS011;70954;49.500;10.416;2023-10-13T08:27:33;3.15;;;1.70;;
81523;SDS011;70954;49.500;10.416;2023-10-13T08:30:05;4.05;;;2.00;;
81523;SDS011;70954;49.500;10.416;2023-10-13T08:32:31;4.03;;;2.03;;
81523;SDS011;70954;49.500;10.416;2023-10-13T08:34:58;2.80;;;1.85;;
81523;SDS011;70954;49.500;10.416;2023-10-13T08:37:25;3.67;;;2.40;;
81523;SDS011;70954;49.500;10.416;2023-10-13T08:39:51;4.30;;;2.00;;
81523;SDS011;70954;49.500;10.416;2023-10-13T08:42:18;4.22;;;2.20;;
81523;SDS011;70954;49.500;10.416;2023-10-13T08:44:45;4.13;;;2.15;;
81523;SDS011;70954;49.500;10.416;2023-10-13T08:47:11;6.10;;;2.20;;
81523;SDS011;70954;49.500;10.416;2023-10-13T08:49:39;3.05;;;2.00;;
81523;SDS011;70954;49.500;10.416;2023-10-13T08:52:09;3.85;;;1.58;;
81523;SDS011;70954;49.500;10.416;2023-10-13T08:54:35;3.22;;;1.92;;
81523;SDS011;70954;49.500;10.416;2023-10-13T08:57:01;3.92;;;2.17;;
81523;SDS011;70954;49.500;10.416;2023-10-13T08:59:27;3.28;;;2.28;;
81523;SDS011;70954;49.500;10.416;2023-10-13T09:01:52;2.65;;;1.58;;
81523;SDS011;70954;49.500;10.416;2023-10-13T09:04:19;2.88;;;2.33;;
81523;SDS011;70954;49.500;10.416;2023-10-13T09:06:45;3.03;;;1.90;;
81523;SDS011;70954;49.500;10.416;2023-10-13T09:09:14;4.90;;;2.20;;
81523;SDS011;70954;49.500;10.416;2023-10-13T09:11:39;3.45;;;1.80;;
81523;SDS011;70954;49.500;10.416;2023-10-13T09:14:12;2.53;;;1.95;;
81523;SDS011;70954;49.500;10.416;2023-10-13T09:16:38;3.33;;;1.92;;
81523;SDS011;70954;49.500;10.416;2023-10-13T09:19:03;5.68;;;1.63;;
81523;SDS011;70954;49.500;10.416;2023-10-13T09:21:29;2.78;;;1.70;;
81523;SDS011;70954;49.500;10.416;2023-10-13T09:24:08;2.15;;;1.70;;
81523;SDS011;70954;49.500;10.416;2023-10-13T09:26:34;3.17;;;1.80;;
81523;SDS011;70954;49.500;10.416;2023-10-13T09:28:59;4.03;;;1.80;;
81523;SDS011;70954;49.500;10.416;2023-10-13T09:31:24;3.53;;;1.77;;
81523;SDS011;70954;49.500;10.416;2023-10-13T09:33:50;4.32;;;2.00;;
81523;SDS011;70954;49.500;10.416;2023-10-13T09:36:15;3.33;;;1.85;;
81523;SDS011;70954;49.500;10.416;2023-10-13T09:38:41;3.70;;;2.05;;
81523;SDS011;70954;49.500;10.416;2023-10-13T09:41:07;4.20;;;1.88;;
81523;SDS011;70954;49.500;10.416;2023-10-13T09:43:33;4.28;;;1.90;;
81523;SDS011;70954;49.500;10.416;2023-10-13T09:45:59;4.95;;;1.88;;
81523;SDS011;70954;49.500;10.416;2023-10-13T09:48:29;5.28;;;1.80;;
81523;SDS011;70954;49.500;10.416;2023-10-13T09:50:57;5.65;;;2.00;;
81523;SDS011;70954;49.500;10.416;2023-10-13T09:53:29;2.83;;;1.70;;
81523;SDS011;70954;49.500;10.416;2023-10-13T09:55:58;4.03;;;1.45;;
81523;SDS011;70954;49.500;10.416;2023-10-13T09:58:28;3.63;;;1.48;;
81523;SDS011;70954;49.500;10.416;2023-10-13T10:00:56;3.05;;;1.77;;
81523;SDS011;70954;49.500;10.416;2023-10-13T10:03:24;3.15;;;1.52;;
81523;SDS011;70954;49.500;10.416;2023-10-13T10:05:59;3.70;;;1.80;;
81523;SDS011;70954;49.500;10.416;2023-10-13T10:08:26;2.13;;;1.73;;
81523;SDS011;70954;49.500;10.416;2023-10-13T10:10:56;2.85;;;1.70;;
81523;SDS011;70954;49.500;10.416;2023-10-13T10:13:47;4.93;;;1.88;;
81523;SDS011;70954;49.500;10.416;2023-10-13T10:19:26;4.75;;;1.90;;
81523;SDS011;70954;49.500;10.416;2023-10-13T10:22:00;2.95;;;1.60;;
81523;SDS011;70954;49.500;10.416;2023-10-13T10:24:26;4.45;;;1.45;;
81523;SDS011;70954;49.500;10.416;2023-10-13T10:26:52;2.10;;;1.52;;
81523;SDS011;70954;49.500;10.416;2023-10-13T10:29:18;3.08;;;1.70;;
81523;SDS011;70954;49.500;10.416;2023-10-13T10:31:44;3.03;;;1.60;;
81523;SDS011;70954;49.500;10.416;2023-10-13T10:34:13;2.65;;;2.08;;
81523;SDS011;70954;49.500;10.416;2023-10-13T10:36:42;2.67;;;1.50;;
81523;SDS011;70954;49.500;10.416;2023-10-13T10:39:10;3.45;;;1.60;;
81523;SDS011;70954;49.500;10.416;2023-10-13T10:41:35;3.25;;;1.48;;
81523;SDS011;70954;49.500;10.416;2023-10-13T10:44:01;3.72;;;1.77;;
81523;SDS011;70954;49.500;10.416;2023-10-13T10:46:27;3.38;;;1.70;;
81523;SDS011;70954;49.500;10.416;2023-10-13T10:48:55;2.85;;;1.67;;
81523;SDS011;70954;49.500;10.416;2023-10-13T10:51:20;2.63;;;1.70;;
81523;SDS011;70954;49.500;10.416;2023-10-13T10:53:50;2.65;;;1.95;;
81523;SDS011;70954;49.500;10.416;2023-10-13T10:56:26;3.83;;;1.60;;
81523;SDS011;70954;49.500;10.416;2023-10-13T10:58:55;4.68;;;1.80;;
81523;SDS011;70954;49.500;10.416;2023-10-13T11:01:26;3.20;;;1.73;;
81523;SDS011;70954;49.500;10.416;2023-10-13T11:04:02;3.55;;;1.60;;
81523;SDS011;70954;49.500;10.416;2023-10-13T11:06:29;2.95;;;1.70;;
81523;SDS011;70954;49.500;10.416;2023-10-13T11:09:04;3.25;;;1.52;;
81523;SDS011;70954;49.500;10.416;2023-10-13T11:11:30;3.53;;;1.67;;
81523;SDS011;70954;49.500;10.416;2023-10-13T11:13:56;6.45;;;2.15;;
81523;SDS011;70954;49.500;10.416;2023-10-13T11:16:22;2.65;;;1.73;;
81523;SDS011;70954;49.500;10.416;2023-10-13T11:18:48;4.22;;;1.83;;
81523;SDS011;70954;49.500;10.416;2023-10-13T11:21:14;4.18;;;1.90;;
81523;SDS011;70954;49.500;10.416;2023-10-13T11:23:40;2.70;;;1.83;;
81523;SDS011;70954;49.500;10.416;2023-10-13T11:26:05;7.32;;;2.30;;
81523;SDS011;70954;49.500;10.416;2023-10-13T11:28:31;3.97;;;1.80;;
81523;SDS011;70954;49.500;10.416;2023-10-13T11:30:56;2.88;;;1.80;;
81523;SDS011;70954;49.500;10.416;2023-10-13T11:33:23;4.30;;;2.03;;
81523;SDS011;70954;49.500;10.416;2023-10-13T11:35:49;4.75;;;1.95;;
81523;SDS011;70954;49.500;10.416;2023-10-13T11:38:15;6.18;;;2.03;;
81523;SDS011;70954;49.500;10.416;2023-10-13T11:40:40;4.43;;;1.85;;
81523;SDS011;70954;49.500;10.416;2023-10-13T11:43:06;3.47;;;1.65;;
81523;SDS011;70954;49.500;10.416;2023-10-13T11:45:32;3.58;;;1.98;;
81523;SDS011;70954;49.500;10.416;2023-10-13T11:47:57;4.85;;;1.80;;
81523;SDS011;70954;49.500;10.416;2023-10-13T11:50:22;4.07;;;1.63;;
81523;SDS011;70954;49.500;10.416;2023-10-13T11:52:48;3.13;;;1.83;;
81523;SDS011;70954;49.500;10.416;2023-10-13T11:55:13;3.40;;;1.65;;
81523;SDS011;70954;49.500;10.416;2023-10-13T11:57:39;3.33;;;1.90;;
81523;SDS011;70954;49.500;10.416;2023-10-13T12:00:04;4.47;;;1.98;;
81523;SDS011;70954;49.500;10.416;2023-10-13T12:02:30;3.00;;;1.92;;
81523;SDS011;70954;49.500;10.416;2023-10-13T12:04:56;5.18;;;2.25;;
81523;SDS011;70954;49.500;10.416;2023-10-13T12:07:21;3.25;;;2.13;;
81523;SDS011;70954;49.500;10.416;2023-10-13T12:09:48;6.03;;;2.05;;
81523;SDS011;70954;49.500;10.416;2023-10-13T12:12:14;5.43;;;1.92;;
81523;SDS011;70954;49.500;10.416;2023-10-13T12:14:39;4.38;;;2.15;;
81523;SDS011;70954;49.500;10.416;2023-10-13T12:17:05;3.28;;;1.75;;
81523;SDS011;70954;49.500;10.416;2023-10-13T12:19:30;6.10;;;2.10;;
81523;SDS011;70954;49.500;10.416;2023-10-13T12:21:56;3.63;;;1.50;;
81523;SDS011;70954;49.500;10.416;2023-10-13T12:24:23;4.65;;;2.10;;
81523;SDS011;70954;49.500;10.416;2023-10-13T12:26:49;3.63;;;1.90;;
81523;SDS011;70954;49.500;10.416;2023-10-13T12:29:14;3.28;;;2.28;;
81523;SDS011;70954;49.500;10.416;2023-10-13T12:31:40;3.75;;;2.00;;
81523;SDS011;70954;49.500;10.416;2023-10-13T12:34:05;3.20;;;2.00;;
81523;SDS011;70954;49.500;10.416;2023-10-13T12:36:31;3.08;;;1.80;;
81523;SDS011;70954;49.500;10.416;2023-10-13T12:38:57;3.22;;;1.92;;
81523;SDS011;70954;49.500;10.416;2023-10-13T12:41:22;4.32;;;2.13;;
81523;SDS011;70954;49.500;10.416;2023-10-13T12:43:47;3.67;;;1.83;;
81523;SDS011;70954;49.500;10.416;2023-10-13T12:46:13;2.55;;;1.70;;
81523;SDS011;70954;49.500;10.416;2023-10-13T12:48:38;3.92;;;1.90;;
81523;SDS011;70954;49.500;10.416;2023-10-13T12:51:04;6.30;;;2.35;;
81523;SDS011;70954;49.500;10.416;2023-10-13T12:53:29;3.33;;;1.90;;
81523;SDS011;70954;49.500;10.416;2023-10-13T12:55:55;3.95;;;2.08;;
81523;SDS011;70954;49.500;10.416;2023-10-13T12:58:20;2.45;;;1.83;;
81523;SDS011;70954;49.500;10.416;2023-10-13T13:00:45;2.95;;;1.90;;
81523;SDS011;70954;49.500;10.416;2023-10-13T13:03:11;2.90;;;1.58;;
81523;SDS011;70954;49.500;10.416;2023-10-13T13:05:36;3.28;;;1.70;;
81523;SDS011;70954;49.500;10.416;2023-10-13T13:08:02;3.65;;;2.10;;
81523;SDS011;70954;49.500;10.416;2023-10-13T13:10:28;3.63;;;1.70;;
81523;SDS011;70954;49.500;10.416;2023-10-13T13:12:53;2.80;;;1.63;;
81523;SDS011;70954;49.500;10.416;2023-10-13T13:15:18;4.00;;;1.67;;
81523;SDS011;70954;49.500;10.416;2023-10-13T13:17:44;7.80;;;1.60;;
81523;SDS011;70954;49.500;10.416;2023-10-13T13:20:09;3.38;;;1.60;;
81523;SDS011;70954;49.500;10.416;2023-10-13T13:22:35;2.70;;;1.55;;
81523;SDS011;70954;49.500;10.416;2023-10-13T13:25:00;2.58;;;1.40;;
81523;SDS011;70954;49.500;10.416;2023-10-13T13:27:26;3.03;;;1.63;;
81523;SDS011;70954;49.500;10.416;2023-10-13T13:29:51;2.55;;;1.52;;
81523;SDS011;70954;49.500;10.416;2023-10-13T13:32:17;3.75;;;1.70;;
81523;SDS011;70954;49.500;10.416;2023-10-13T13:34:43;4.15;;;1.70;;
81523;SDS011;70954;49.500;10.416;2023-10-13T13:37:09;2.20;;;1.50;;
81523;SDS011;70954;49.500;10.416;2023-10-13T13:39:34;5.85;;;1.63;;
81523;SDS011;70954;49.500;10.416;2023-10-13T13:41:59;3.08;;;1.80;;
81523;SDS011;70954;49.500;10.416;2023-10-13T13:44:25;2.38;;;1.60;;
81523;SDS011;70954;49.500;10.416;2023-10-13T13:46:51;5.05;;;1.73;;
81523;SDS011;70954;49.500;10.416;2023-10-13T13:49:16;3.67;;;1.60;;
81523;SDS011;70954;49.500;10.416;2023-10-13T13:51:41;2.03;;;1.60;;
81523;SDS011;70954;49.500;10.416;2023-10-13T13:54:07;1.90;;;1.45;;
81523;SDS011;70954;49.500;10.416;2023-10-13T13:56:32;2.03;;;1.73;;
81523;SDS011;70954;49.500;10.416;2023-10-13T13:58:58;3.58;;;1.50;;
81523;SDS011;70954;49.500;10.416;2023-10-13T14:01:23;2.67;;;1.42;;
81523;SDS011;70954;49.500;10.416;2023-10-13T14:03:49;6.03;;;1.75;;
81523;SDS011;70954;49.500;10.416;2023-10-13T14:06:15;3.30;;;1.40;;
81523;SDS011;70954;49.500;10.416;2023-10-13T14:08:42;2.65;;;1.60;;
81523;SDS011;70954;49.500;10.416;2023-10-13T14:11:08;3.95;;;1.58;;
81523;SDS011;70954;49.500;10.416;2023-10-13T14:13:33;2.45;;;1.30;;
81523;SDS011;70954;49.500;10.416;2023-10-13T14:15:59;2.20;;;1.50;;
81523;SDS011;70954;49.500;10.416;2023-10-13T14:18:24;5.30;;;1.70;;
81523;SDS011;70954;49.500;10.416;2023-10-13T14:20:49;4.53;;;1.80;;
81523;SDS011;70954;49.500;10.416;2023-10-13T14:23:15;2.88;;;1.70;;
81523;SDS011;70954;49.500;10.416;2023-10-13T14:25:40;2.47;;;1.58;;
81523;SDS011;70954;49.500;10.416;2023-10-13T14:28:06;3.97;;;1.98;;
81523;SDS011;70954;49.500;10.416;2023-10-13T14:30:31;4.50;;;1.50;;
81523;SDS011;70954;49.500;10.416;2023-10-13T14:32:57;3.97;;;1.60;;